Time;durP1;ratioP1;P1;durP2;ratioP2;P2;SDS_P1;SDS_P2;PMS_P1;PMS_P2;Temp;Humidity;BMP_temperature;BMP_pressure;BME280_temperature;BME280_humidity;BME280_pressure;Samples;Min_cycle;Max_cycle;Signal;HPM_P1;HPM_P2
2023/07/17 00:03:55;;;;;;;3.20;3.00;;;22.10;90.20;;;;;;10397363;28;20284;-79
2023/07/17 00:08:57;;;;;;;3.97;3.57;;;22.10;91.20;;;;;;10410315;28;20222;-78
2023/07/17 00:14:00;;;;;;;4.90;3.50;;;22.00;92.20;;;;;;10410813;28;20215;-78
2023/07/17 00:19:03;;;;;;;5.00;3.60;;;22.00;91.80;;;;;;10394720;28;20229;-79
2023/07/17 00:24:05;;;;;;;4.93;3.40;;;22.00;91.70;;;;;;10394282;28;20277;-80
2023/07/17 00:29:25;;;;;;;5.20;4.10;;;22.00;91.30;;;;;;10394543;28;20218;-79
2023/07/17 00:34:27;;;;;;;4.83;3.80;;;22.00;91.80;;;;;;10395421;28;20309;-78
2023/07/17 00:39:29;;;;;;;4.73;3.37;;;21.90;92.10;;;;;;10409784;28;20276;-80
2023/07/17 00:44:35;;;;;;;3.73;3.43;;;21.90;92.40;;;;;;10394998;28;20252;-78
2023/07/17 00:49:38;;;;;;;5.47;3.30;;;21.90;92.70;;;;;;10411844;28;20230;-78
2023/07/17 00:54:42;;;;;;;5.90;3.23;;;21.90;92.50;;;;;;10412158;28;20667;-78
2023/07/17 00:59:46;;;;;;;4.00;3.70;;;22.00;92.60;;;;;;10407571;28;20297;-77
2023/07/17 01:04:49;;;;;;;5.27;3.53;;;22.00;92.40;;;;;;10390625;28;20724;-79
2023/07/17 01:09:52;;;;;;;4.30;4.00;;;22.10;92.20;;;;;;10410596;28;20214;-78
2023/07/17 01:14:56;;;;;;;5.13;3.50;;;22.10;91.40;;;;;;10393684;28;20238;-79
2023/07/17 01:19:58;;;;;;;3.73;3.43;;;22.20;91.80;;;;;;10392869;28;20222;-77
2023/07/17 01:25:03;;;;;;;3.23;2.90;;;22.30;92.40;;;;;;10403450;28;20274;-77
2023/07/17 01:30:06;;;;;;;3.57;3.27;;;22.40;91.70;;;;;;10392367;28;20234;-79
2023/07/17 01:35:09;;;;;;;3.77;3.40;;;22.40;90.40;;;;;;10410632;28;20230;-76
2023/07/17 01:40:15;;;;;;;4.00;3.63;;;22.40;92.30;;;;;;10392130;28;20243;-77
2023/07/17 01:45:18;;;;;;;5.50;4.10;;;22.50;93.90;;;;;;10410769;28;20497;-77
2023/07/17 01:50:22;;;;;;;3.40;3.20;;;22.50;94.20;;;;;;10410704;22;20261;-81
2023/07/17 01:55:25;;;;;;;4.17;3.87;;;22.50;94.00;;;;;;10361507;28;20246;-81
2023/07/17 02:00:27;;;;;;;4.77;3.70;;;22.40;94.60;;;;;;10361006;28;20234;-82
2023/07/17 02:05:30;;;;;;;3.60;3.33;;;22.30;94.40;;;;;;10355210;28;20207;-82
2023/07/17 02:10:34;;;;;;;4.13;3.60;;;22.30;94.60;;;;;;10355922;28;20244;-82
2023/07/17 02:15:36;;;;;;;3.70;3.50;;;22.20;94.90;;;;;;10345819;28;20234;-82
2023/07/17 02:20:38;;;;;;;3.57;3.37;;;22.10;94.90;;;;;;10362382;28;20226;-81
2023/07/17 02:25:42;;;;;;;4.00;3.70;;;22.00;94.60;;;;;;10352532;28;20195;-80
2023/07/17 02:30:44;;;;;;;4.20;3.80;;;21.90;94.50;;;;;;10356994;28;20219;-81
2023/07/17 02:35:46;;;;;;;4.23;3.80;;;21.80;95.30;;;;;;10347442;28;20228;-81
2023/07/17 02:40:50;;;;;;;3.50;3.30;;;21.80;95.30;;;;;;10349492;28;20262;-81
2023/07/17 02:45:52;;;;;;;4.60;3.70;;;21.80;95.60;;;;;;10350825;28;20464;-81
2023/07/17 02:50:54;;;;;;;3.40;3.10;;;21.90;96.00;;;;;;10354042;28;20245;-82
2023/07/17 02:55:57;;;;;;;4.03;3.63;;;21.90;96.00;;;;;;10355972;28;20615;-82
2023/07/17 03:00:59;;;;;;;4.10;3.70;;;21.90;96.50;;;;;;10342039;28;20258;-81
2023/07/17 03:06:01;;;;;;;4.57;4.10;;;21.90;96.20;;;;;;10354657;28;20306;-81
2023/07/17 03:11:05;;;;;;;4.27;3.87;;;22.00;96.90;;;;;;10346282;28;20215;-81
2023/07/17 03:16:08;;;;;;;4.07;3.67;;;21.90;95.80;;;;;;10330262;28;20278;-81
2023/07/17 03:21:10;;;;;;;4.33;3.93;;;21.90;96.10;;;;;;10355162;28;20224;-81
2023/07/17 03:26:14;;;;;;;3.50;3.30;;;21.90;95.60;;;;;;10351249;28;20196;-82
2023/07/17 03:31:16;;;;;;;3.73;3.43;;;21.80;95.60;;;;;;10351581;28;20220;-81
2023/07/17 03:36:18;;;;;;;4.13;3.83;;;21.80;95.50;;;;;;10355564;28;20714;-81
2023/07/17 03:41:21;;;;;;;4.47;4.17;;;21.80;95.90;;;;;;10357195;28;20517;-82
2023/07/17 03:46:23;;;;;;;3.80;3.50;;;21.70;95.60;;;;;;10362129;28;20255;-81
2023/07/17 03:51:25;;;;;;;3.97;3.60;;;21.80;95.90;;;;;;10347686;28;20310;-82
2023/07/17 03:56:29;;;;;;;7.37;3.97;;;21.80;96.00;;;;;;10369331;28;20225;-82
2023/07/17 04:01:31;;;;;;;5.97;3.40;;;21.80;95.90;;;;;;10367673;28;20221;-82
2023/07/17 04:06:34;;;;;;;4.63;4.23;;;21.80;95.70;;;;;;10353273;28;20227;-82
2023/07/17 04:11:37;;;;;;;4.17;3.87;;;21.80;95.40;;;;;;10365732;28;20691;-83
2023/07/17 04:16:40;;;;;;;5.27;3.60;;;21.80;95.10;;;;;;10360343;28;20191;-81
2023/07/17 04:21:42;;;;;;;4.60;4.13;;;21.70;95.00;;;;;;10373526;28;20243;-80
2023/07/17 04:26:46;;;;;;;4.50;4.10;;;21.70;95.20;;;;;;10355278;28;20260;-82
2023/07/17 04:31:48;;;;;;;4.40;4.00;;;21.70;94.80;;;;;;10361327;28;20306;-82
2023/07/17 04:36:50;;;;;;;4.63;4.10;;;21.60;95.10;;;;;;10354115;28;20284;-81
2023/07/17 04:41:53;;;;;;;4.27;3.80;;;21.60;95.00;;;;;;10356567;28;20568;-81
2023/07/17 04:46:58;;;;;;;4.40;4.00;;;21.50;94.70;;;;;;10352238;28;20578;-81
2023/07/17 04:52:00;;;;;;;4.77;3.97;;;21.50;95.30;;;;;;10356614;28;20234;-81
2023/07/17 04:57:04;;;;;;;4.27;3.80;;;21.50;95.10;;;;;;10353315;28;20199;-81
2023/07/17 05:02:08;;;;;;;4.70;4.07;;;21.50;94.80;;;;;;10353789;28;20311;-80
2023/07/17 05:07:10;;;;;;;5.80;3.90;;;21.60;96.10;;;;;;10351105;28;20224;-80
2023/07/17 05:12:13;;;;;;;4.60;3.67;;;21.70;96.60;;;;;;10354674;28;20246;-83
2023/07/17 05:17:18;;;;;;;5.07;4.07;;;21.90;96.10;;;;;;10322334;28;20596;-79
2023/07/17 05:22:21;;;;;;;4.27;3.40;;;22.10;96.30;;;;;;10357241;28;20281;-80
2023/07/17 05:27:26;;;;;;;4.90;4.20;;;22.20;96.40;;;;;;10355664;28;20765;-80
2023/07/17 05:32:29;;;;;;;3.50;3.20;;;22.30;95.40;;;;;;10337394;28;20281;-82
2023/07/17 05:37:31;;;;;;;5.87;4.97;;;22.40;94.90;;;;;;10358560;28;20207;-77
2023/07/17 05:42:35;;;;;;;6.30;4.30;;;22.50;95.20;;;;;;10355509;28;20560;-81
2023/07/17 05:47:37;;;;;;;4.07;3.60;;;22.70;95.20;;;;;;10351444;28;20193;-82
2023/07/17 05:52:39;;;;;;;4.73;3.80;;;22.80;93.40;;;;;;10353853;28;20223;-80
2023/07/17 05:57:43;;;;;;;5.00;4.50;;;22.90;94.20;;;;;;10353093;28;20199;-80
2023/07/17 06:02:45;;;;;;;3.73;3.30;;;23.00;93.00;;;;;;10352078;28;20223;-80
2023/07/17 06:07:47;;;;;;;4.77;3.70;;;22.90;92.50;;;;;;10348550;28;20687;-80
2023/07/17 06:12:51;;;;;;;4.60;4.20;;;22.90;92.90;;;;;;10356535;28;20625;-79
2023/07/17 06:17:53;;;;;;;4.50;4.03;;;22.90;92.20;;;;;;10356693;28;20199;-80
2023/07/17 06:22:55;;;;;;;4.13;3.67;;;22.90;93.20;;;;;;10353675;28;20212;-81
2023/07/17 06:27:58;;;;;;;4.87;4.37;;;22.90;93.00;;;;;;10361092;28;20246;-79
2023/07/17 06:33:00;;;;;;;8.27;3.87;;;23.00;92.70;;;;;;10355739;28;20222;-79
2023/07/17 06:38:02;;;;;;;7.27;4.70;;;23.10;93.20;;;;;;10358980;28;20310;-79
2023/07/17 06:43:06;;;;;;;3.63;3.30;;;23.20;93.10;;;;;;10355797;28;20226;-83
2023/07/17 06:48:08;;;;;;;3.90;3.37;;;23.40;91.30;;;;;;10359862;28;20210;-79
2023/07/17 06:53:10;;;;;;;3.50;3.20;;;23.60;91.50;;;;;;10352243;28;20235;-82
2023/07/17 06:58:13;;;;;;;3.50;3.20;;;23.90;91.50;;;;;;10376525;28;20682;-81
2023/07/17 07:03:15;;;;;;;4.40;3.20;;;24.20;90.20;;;;;;10348281;28;20192;-82
2023/07/17 07:08:17;;;;;;;5.60;3.23;;;24.40;89.50;;;;;;10352202;28;20601;-80
2023/07/17 07:13:22;;;;;;;3.33;3.13;;;24.60;87.20;;;;;;10353823;28;20227;-81
2023/07/17 07:18:24;;;;;;;5.53;3.70;;;24.90;87.60;;;;;;10338497;28;20199;-83
2023/07/17 07:23:26;;;;;;;4.10;3.80;;;25.10;86.60;;;;;;10347014;28;20210;-82
2023/07/17 07:28:30;;;;;;;4.97;4.57;;;25.50;86.40;;;;;;10346003;28;20234;-83
2023/07/17 07:33:32;;;;;;;7.93;4.97;;;25.70;81.50;;;;;;10353022;28;20224;-81
2023/07/17 07:38:34;;;;;;;5.07;4.23;;;26.10;78.40;;;;;;10364876;28;20283;-80
2023/07/17 07:43:38;;;;;;;5.00;4.53;;;26.30;75.10;;;;;;10371844;28;20249;-80
2023/07/17 07:48:40;;;;;;;8.70;4.53;;;26.60;75.00;;;;;;10369956;28;20265;-80
2023/07/17 07:53:42;;;;;;;4.67;4.03;;;26.90;75.10;;;;;;10356535;28;20278;-80
2023/07/17 07:58:45;;;;;;;5.20;4.00;;;27.30;74.80;;;;;;10359278;28;20242;-81
2023/07/17 08:03:47;;;;;;;7.73;4.30;;;27.80;72.80;;;;;;10361400;28;20521;-81
2023/07/17 08:08:50;;;;;;;4.53;4.13;;;28.00;68.50;;;;;;10361836;28;20230;-82
2023/07/17 08:13:53;;;;;;;5.13;3.30;;;28.50;69.60;;;;;;10365389;28;20749;-82
2023/07/17 08:18:55;;;;;;;9.07;4.57;;;29.00;69.40;;;;;;10355822;28;20216;-82
2023/07/17 08:23:58;;;;;;;5.03;4.60;;;29.40;67.90;;;;;;10361879;28;20218;-79
2023/07/17 08:29:02;;;;;;;4.70;4.27;;;29.60;65.60;;;;;;10368448;28;20218;-81
2023/07/17 08:34:05;;;;;;;15.03;10.97;;;29.50;66.10;;;;;;10372867;28;20235;-82
2023/07/17 08:39:07;;;;;;;6.93;4.53;;;29.40;65.10;;;;;;10362886;28;20219;-82
2023/07/17 08:44:10;;;;;;;4.40;4.00;;;29.60;61.80;;;;;;10361722;28;20204;-82
2023/07/17 08:49:15;;;;;;;4.60;3.93;;;29.50;60.20;;;;;;10370216;28;20227;-82
2023/07/17 08:54:17;;;;;;;3.70;3.40;;;29.70;58.30;;;;;;10370623;28;20223;-82
2023/07/17 08:59:21;;;;;;;8.70;4.10;;;29.90;58.60;;;;;;10358882;28;20227;-82
2023/07/17 09:04:23;;;;;;;5.87;4.60;;;30.10;56.80;;;;;;10356463;28;20226;-82
2023/07/17 09:09:25;;;;;;;4.83;4.30;;;29.90;57.80;;;;;;10369485;28;20212;-82
2023/07/17 09:14:29;;;;;;;5.30;4.37;;;29.70;58.20;;;;;;10358003;28;20223;-82
2023/07/17 09:19:32;;;;;;;5.30;4.80;;;29.80;60.00;;;;;;10362152;28;20778;-82
2023/07/17 09:24:35;;;;;;;5.20;4.73;;;30.40;57.40;;;;;;10350657;28;20251;-81
2023/07/17 09:29:42;;;;;;;4.47;4.07;;;30.40;56.60;;;;;;10370040;28;20235;-80
2023/07/17 09:34:44;;;;;;;5.20;3.73;;;30.50;58.00;;;;;;10363603;28;20577;-82
2023/07/17 09:39:52;;;;;;;4.67;4.27;;;30.50;57.30;;;;;;10357416;28;20220;-82
2023/07/17 09:44:55;;;;;;;6.73;4.93;;;30.50;58.00;;;;;;10353661;28;20196;-82
2023/07/17 09:49:59;;;;;;;4.37;3.93;;;30.60;58.20;;;;;;10358720;28;20259;-82
2023/07/17 09:55:01;;;;;;;6.33;5.17;;;30.40;58.40;;;;;;10354655;28;20211;-82
2023/07/17 10:00:11;;;;;;;5.63;4.30;;;30.30;59.00;;;;;;10347672;28;20256;-82
2023/07/17 10:05:14;;;;;;;4.20;3.80;;;30.50;57.40;;;;;;10356494;28;20235;-80
2023/07/17 10:10:16;;;;;;;4.93;4.30;;;30.40;57.30;;;;;;10378208;28;20570;-81
2023/07/17 10:15:20;;;;;;;5.00;4.50;;;30.10;58.10;;;;;;10362417;28;20219;-82
2023/07/17 10:20:23;;;;;;;4.20;3.83;;;30.60;59.00;;;;;;10359972;28;20234;-82
2023/07/17 10:25:28;;;;;;;5.03;4.10;;;32.00;57.30;;;;;;10359248;28;20199;-83
2023/07/17 10:30:33;;;;;;;4.90;4.40;;;32.40;53.30;;;;;;10350897;28;20224;-82
2023/07/17 10:35:49;;;;;;;6.33;4.30;;;31.80;55.90;;;;;;10361792;28;20221;-81
2023/07/17 10:41:02;;;;;;;7.10;4.70;;;31.30;54.40;;;;;;10359259;28;20223;-82
2023/07/17 10:46:10;;;;;;;6.60;4.33;;;30.90;55.00;;;;;;10359860;28;20204;-82
2023/07/17 10:51:12;;;;;;;4.87;4.37;;;30.40;55.70;;;;;;10360065;28;20228;-82
2023/07/17 10:56:15;;;;;;;5.30;4.87;;;29.90;56.60;;;;;;10350870;28;20239;-82
2023/07/17 11:01:18;;;;;;;4.97;4.47;;;29.60;58.70;;;;;;10360195;28;20233;-82
2023/07/17 11:06:24;;;;;;;5.67;4.73;;;29.30;57.00;;;;;;10351435;28;20195;-81
2023/07/17 11:11:27;;;;;;;4.53;4.13;;;29.00;59.60;;;;;;10355041;28;20215;-82
2023/07/17 11:16:30;;;;;;;4.93;3.90;;;28.70;60.40;;;;;;10354666;28;20302;-82
2023/07/17 11:21:33;;;;;;;5.00;4.60;;;28.60;61.40;;;;;;10354166;28;20278;-80
2023/07/17 11:26:35;;;;;;;5.17;4.77;;;28.60;59.50;;;;;;10347087;28;20249;-82
2023/07/17 11:31:39;;;;;;;4.30;3.97;;;28.80;58.70;;;;;;10359478;28;20218;-84
2023/07/17 11:36:43;;;;;;;4.27;3.97;;;28.90;57.70;;;;;;10353062;28;20305;-80
2023/07/17 11:41:47;;;;;;;5.73;5.07;;;28.90;57.50;;;;;;10361072;28;20215;-81
2023/07/17 11:46:52;;;;;;;4.67;4.27;;;28.80;56.70;;;;;;10353574;28;20408;-82
2023/07/17 11:51:54;;;;;;;6.30;4.90;;;28.60;56.60;;;;;;10357476;28;20731;-82
2023/07/17 11:56:59;;;;;;;5.17;4.67;;;28.30;59.00;;;;;;10356334;28;20275;-81
2023/07/17 12:02:03;;;;;;;7.90;5.80;;;28.20;62.20;;;;;;10363880;28;20331;-82
2023/07/17 12:07:06;;;;;;;5.20;4.70;;;28.20;59.10;;;;;;10354124;28;20227;-82
2023/07/17 12:12:09;;;;;;;5.30;4.80;;;28.20;60.60;;;;;;10373826;28;20227;-82
2023/07/17 12:17:12;;;;;;;5.53;4.83;;;28.20;59.20;;;;;;10357823;28;20227;-82
2023/07/17 12:22:14;;;;;;;5.73;4.57;;;28.20;58.50;;;;;;10367674;28;20219;-82
2023/07/17 12:27:17;;;;;;;4.97;4.47;;;28.30;57.80;;;;;;10365929;28;20676;-81
2023/07/17 12:32:20;;;;;;;5.47;3.93;;;28.40;58.40;;;;;;10361571;28;20244;-79
2023/07/17 12:37:22;;;;;;;4.90;4.50;;;28.30;59.90;;;;;;10366822;28;20212;-81
2023/07/17 12:42:24;;;;;;;4.57;4.17;;;28.40;60.40;;;;;;10358976;28;20709;-79
2023/07/17 12:47:28;;;;;;;5.20;4.80;;;28.40;60.40;;;;;;10362270;28;20204;-80
2023/07/17 12:52:30;;;;;;;6.33;4.93;;;28.40;60.40;;;;;;10375885;28;20574;-80
2023/07/17 12:57:32;;;;;;;4.47;4.07;;;28.30;60.10;;;;;;10387055;28;20669;-82
2023/07/17 13:02:35;;;;;;;4.53;4.10;;;28.30;58.50;;;;;;10356945;28;20223;-81
2023/07/17 13:07:37;;;;;;;4.47;4.07;;;28.40;59.30;;;;;;10358039;28;20211;-82
2023/07/17 13:12:39;;;;;;;5.20;4.70;;;28.40;58.80;;;;;;10361470;28;20258;-80
2023/07/17 13:17:43;;;;;;;5.90;4.47;;;28.50;59.00;;;;;;10356826;28;20219;-81
2023/07/17 13:22:45;;;;;;;5.73;4.70;;;28.50;58.90;;;;;;10357518;28;20227;-82
2023/07/17 13:27:47;;;;;;;5.13;4.33;;;28.50;58.30;;;;;;10350348;28;20199;-83
2023/07/17 13:32:51;;;;;;;5.10;4.60;;;28.50;58.60;;;;;;10366956;28;20215;-81
2023/07/17 13:37:53;;;;;;;5.80;5.30;;;28.50;60.40;;;;;;10350978;28;20220;-81
2023/07/17 13:42:55;;;;;;;4.87;4.23;;;28.50;60.20;;;;;;10355600;28;20222;-82
2023/07/17 13:47:58;;;;;;;5.63;5.03;;;28.50;60.00;;;;;;10356327;28;20266;-80
2023/07/17 13:53:01;;;;;;;4.60;4.07;;;28.50;61.80;;;;;;10347881;22;20221;-77
2023/07/17 13:58:03;;;;;;;7.90;4.63;;;28.40;60.90;;;;;;10312870;28;20225;-79
2023/07/17 14:03:06;;;;;;;6.70;4.07;;;28.30;61.80;;;;;;10311495;28;20224;-79
2023/07/17 14:08:08;;;;;;;7.50;5.67;;;28.30;63.30;;;;;;10306309;28;20228;-78
2023/07/17 14:13:10;;;;;;;5.60;4.60;;;28.20;64.10;;;;;;10312025;28;20224;-79
2023/07/17 14:18:14;;;;;;;5.03;4.47;;;28.10;63.00;;;;;;10311000;28;20275;-79
2023/07/17 14:23:16;;;;;;;4.43;4.07;;;28.00;65.20;;;;;;10303655;28;20213;-78
2023/07/17 14:28:18;;;;;;;5.43;3.80;;;27.80;63.70;;;;;;10298916;28;20778;-78
2023/07/17 14:33:21;;;;;;;4.43;3.80;;;27.80;62.10;;;;;;10306434;28;20290;-79
2023/07/17 14:38:24;;;;;;;4.33;3.97;;;27.80;63.40;;;;;;10306094;28;20217;-78
2023/07/17 14:43:26;;;;;;;4.30;3.90;;;27.90;61.40;;;;;;10309532;28;20224;-78
2023/07/17 14:48:30;;;;;;;3.80;3.50;;;27.90;62.00;;;;;;10307686;28;20204;-78
2023/07/17 14:53:33;;;;;;;5.33;4.40;;;27.90;63.70;;;;;;10308614;28;20323;-78
2023/07/17 14:58:35;;;;;;;5.23;4.13;;;27.80;62.60;;;;;;10299062;28;20290;-78
2023/07/17 15:03:39;;;;;;;5.13;4.50;;;27.70;62.40;;;;;;10303495;28;20295;-78
2023/07/17 15:08:41;;;;;;;4.90;4.50;;;27.70;63.70;;;;;;10304334;28;20262;-78
2023/07/17 15:13:44;;;;;;;4.47;4.03;;;27.70;63.50;;;;;;10303304;28;20216;-77
2023/07/17 15:18:47;;;;;;;5.70;4.10;;;27.70;63.30;;;;;;10312546;28;20323;-78
2023/07/17 15:23:49;;;;;;;5.40;4.30;;;27.70;64.00;;;;;;10296058;28;20216;-78
2023/07/17 15:28:51;;;;;;;6.40;4.77;;;27.70;65.30;;;;;;10300745;28;20279;-78
2023/07/17 15:33:55;;;;;;;4.77;4.00;;;27.60;63.90;;;;;;10294924;28;20223;-77
2023/07/17 15:38:57;;;;;;;5.67;4.10;;;27.60;63.70;;;;;;10294876;28;20252;-77
2023/07/17 15:43:59;;;;;;;4.80;4.40;;;27.50;62.40;;;;;;10304478;28;20216;-77
2023/07/17 15:49:03;;;;;;;4.33;3.93;;;27.40;62.10;;;;;;10305160;28;20212;-78
2023/07/17 15:54:05;;;;;;;4.40;3.90;;;27.40;64.60;;;;;;10312451;28;20258;-77
2023/07/17 15:59:07;;;;;;;4.23;3.93;;;27.30;64.60;;;;;;10315713;28;20207;-77
2023/07/17 16:04:10;;;;;;;5.27;4.67;;;27.40;63.30;;;;;;10310428;28;20282;-77
2023/07/17 16:09:12;;;;;;;4.53;4.10;;;27.50;61.00;;;;;;10308070;28;20231;-77
2023/07/17 16:14:14;;;;;;;6.57;4.60;;;27.40;62.30;;;;;;10312300;28;20231;-77
2023/07/17 16:19:18;;;;;;;5.17;4.67;;;27.20;62.40;;;;;;10315104;28;20232;-77
2023/07/17 16:24:20;;;;;;;5.17;4.50;;;27.10;64.40;;;;;;10313316;28;20205;-77
2023/07/17 16:29:22;;;;;;;6.83;4.27;;;27.00;65.00;;;;;;10308985;28;20201;-77
2023/07/17 16:34:25;;;;;;;8.53;4.33;;;26.90;66.80;;;;;;10319639;28;20200;-77
2023/07/17 16:39:27;;;;;;;4.73;4.33;;;26.80;64.20;;;;;;10317049;28;20207;-77
2023/07/17 16:44:29;;;;;;;5.40;4.77;;;26.80;65.80;;;;;;10319938;28;20228;-77
2023/07/17 16:49:33;;;;;;;4.90;4.40;;;26.70;65.30;;;;;;10308511;28;20232;-78
2023/07/17 16:54:35;;;;;;;5.10;4.60;;;26.70;65.10;;;;;;10300278;28;20271;-77
2023/07/17 16:59:37;;;;;;;3.97;3.67;;;26.60;63.90;;;;;;10301850;28;20228;-77
2023/07/17 17:04:41;;;;;;;7.23;4.83;;;26.60;64.80;;;;;;10308640;28;20204;-77
2023/07/17 17:09:43;;;;;;;4.50;4.00;;;26.60;64.90;;;;;;10307504;28;20243;-77
2023/07/17 17:14:46;;;;;;;4.70;4.30;;;26.50;65.10;;;;;;10317642;28;20722;-77
2023/07/17 17:19:52;;;;;;;5.17;4.40;;;26.40;63.60;;;;;;10328702;28;20243;-76
2023/07/17 17:24:57;;;;;;;5.20;4.73;;;26.40;66.50;;;;;;10317567;28;20200;-79
2023/07/17 17:30:00;;;;;;;6.50;4.73;;;26.30;64.20;;;;;;10317279;28;20227;-77
2023/07/17 17:35:04;;;;;;;4.70;4.30;;;26.30;65.50;;;;;;10310221;28;20220;-77
2023/07/17 17:40:08;;;;;;;3.87;3.57;;;26.20;65.80;;;;;;10312440;28;20231;-76
2023/07/17 17:45:14;;;;;;;5.57;4.03;;;26.20;64.30;;;;;;10312785;28;20204;-78
2023/07/17 17:50:17;;;;;;;8.60;4.10;;;26.20;62.40;;;;;;10316426;28;20236;-79
2023/07/17 17:55:19;;;;;;;5.63;4.13;;;26.20;63.00;;;;;;10315507;28;20314;-77
2023/07/17 18:00:21;;;;;;;3.50;3.20;;;26.20;62.90;;;;;;10310758;28;20240;-77
2023/07/17 18:05:26;;;;;;;3.00;2.80;;;26.10;64.40;;;;;;10317292;28;20297;-78
2023/07/17 18:10:28;;;;;;;7.00;3.27;;;26.10;60.70;;;;;;10303762;28;20590;-77
2023/07/17 18:15:30;;;;;;;8.40;3.40;;;26.00;61.40;;;;;;10315667;28;20290;-77
2023/07/17 18:20:34;;;;;;;3.50;3.20;;;25.90;62.60;;;;;;10306603;28;20244;-77
2023/07/17 18:25:36;;;;;;;3.33;3.03;;;25.80;63.30;;;;;;10305361;28;20203;-76
2023/07/17 18:30:38;;;;;;;4.03;3.30;;;25.70;60.90;;;;;;10306837;28;20220;-77
2023/07/17 18:35:42;;;;;;;3.00;2.80;;;25.60;62.30;;;;;;10307078;28;20247;-77
2023/07/17 18:40:44;;;;;;;3.53;3.23;;;25.60;64.40;;;;;;10301916;28;20220;-76
2023/07/17 18:45:46;;;;;;;3.90;3.03;;;25.50;64.60;;;;;;10303405;28;20200;-76
2023/07/17 18:50:51;;;;;;;3.20;2.57;;;25.50;67.70;;;;;;10310739;28;20234;-77
2023/07/17 18:55:54;;;;;;;3.37;3.07;;;25.40;65.00;;;;;;10315972;28;20228;-77
2023/07/17 19:00:56;;;;;;;7.73;5.20;;;25.30;64.50;;;;;;10314954;28;20715;-77
2023/07/17 19:05:59;;;;;;;5.80;3.03;;;25.30;63.20;;;;;;10306472;28;20204;-78
2023/07/17 19:11:02;;;;;;;2.90;2.70;;;25.20;65.40;;;;;;10297580;28;20747;-77
2023/07/17 19:16:04;;;;;;;3.00;2.80;;;25.10;66.90;;;;;;10296588;28;20289;-77
2023/07/17 19:21:08;;;;;;;4.23;3.23;;;25.10;67.30;;;;;;10297448;28;20224;-77
2023/07/17 19:26:10;;;;;;;3.83;2.97;;;25.00;68.30;;;;;;10301776;28;20770;-77
2023/07/17 19:31:12;;;;;;;4.07;3.10;;;24.90;68.60;;;;;;10302711;28;20224;-77
2023/07/17 19:36:16;;;;;;;4.13;3.83;;;24.90;73.10;;;;;;10305787;28;20236;-77
2023/07/17 19:41:18;;;;;;;3.50;3.20;;;24.80;74.60;;;;;;10301660;28;20224;-77
2023/07/17 19:46:20;;;;;;;6.40;3.73;;;24.70;71.70;;;;;;10312744;28;20208;-78
2023/07/17 19:51:24;;;;;;;3.40;3.10;;;24.70;70.40;;;;;;10349685;23;20231;-83
2023/07/17 19:56:26;;;;;;;3.03;2.83;;;24.60;68.50;;;;;;10365558;28;20278;-81
2023/07/17 20:01:28;;;;;;;3.47;3.13;;;24.50;68.70;;;;;;10362959;28;20223;-80
2023/07/17 20:06:32;;;;;;;3.17;2.80;;;24.40;68.70;;;;;;10344509;28;20318;-82
2023/07/17 20:11:35;;;;;;;3.90;2.97;;;24.20;69.10;;;;;;10357790;28;20215;-81
2023/07/17 20:16:37;;;;;;;3.77;3.43;;;24.00;68.60;;;;;;10365057;28;20231;-82
2023/07/17 20:21:41;;;;;;;3.20;2.90;;;23.90;70.20;;;;;;10357040;28;20259;-80
2023/07/17 20:26:43;;;;;;;3.30;3.00;;;23.70;69.40;;;;;;10370489;28;20630;-80
2023/07/17 20:31:45;;;;;;;4.87;3.30;;;23.60;69.20;;;;;;10361312;28;20242;-80
2023/07/17 20:36:49;;;;;;;3.43;3.13;;;23.50;69.50;;;;;;10351028;28;20231;-81
2023/07/17 20:41:51;;;;;;;3.70;3.30;;;23.30;68.00;;;;;;10345765;28;20223;-82
2023/07/17 20:46:53;;;;;;;3.40;3.10;;;23.20;69.10;;;;;;10352891;28;20192;-82
2023/07/17 20:51:57;;;;;;;4.87;3.00;;;23.10;69.10;;;;;;10366061;28;20235;-82
2023/07/17 20:56:59;;;;;;;3.83;2.80;;;23.00;69.20;;;;;;10363016;28;20231;-80
2023/07/17 21:02:02;;;;;;;2.73;2.50;;;22.90;69.60;;;;;;10329463;28;20234;-82
2023/07/17 21:07:06;;;;;;;3.53;2.67;;;22.90;70.00;;;;;;10331801;28;20205;-82
2023/07/17 21:12:09;;;;;;;4.13;3.13;;;22.80;70.20;;;;;;10334600;28;20228;-81
2023/07/17 21:17:11;;;;;;;4.60;3.23;;;22.70;70.70;;;;;;10341077;28;20235;-81
2023/07/17 21:22:17;;;;;;;2.93;2.63;;;22.70;69.30;;;;;;10340244;28;20216;-82
2023/07/17 21:27:19;;;;;;;4.37;2.80;;;22.60;70.70;;;;;;10341332;28;20222;-81
2023/07/17 21:32:21;;;;;;;2.27;2.07;;;22.50;70.90;;;;;;10331592;28;20278;-82
2023/07/17 21:37:24;;;;;;;3.90;2.53;;;22.50;70.00;;;;;;10332327;28;20240;-81
2023/07/17 21:42:29;;;;;;;4.20;2.73;;;22.40;69.70;;;;;;10327092;28;20315;-82
2023/07/17 21:47:31;;;;;;;3.80;2.33;;;22.30;70.10;;;;;;10324248;28;20211;-82
2023/07/17 21:52:35;;;;;;;2.60;1.97;;;22.20;69.80;;;;;;10321874;28;20303;-80
2023/07/17 21:57:38;;;;;;;3.40;3.10;;;22.20;70.10;;;;;;10322469;28;20759;-81
2023/07/17 22:02:40;;;;;;;3.57;2.30;;;22.20;70.30;;;;;;10330625;28;20223;-81
2023/07/17 22:07:43;;;;;;;2.60;2.30;;;22.10;70.50;;;;;;10329552;28;20375;-82
2023/07/17 22:12:46;;;;;;;2.40;2.20;;;22.10;70.90;;;;;;10346155;28;20234;-81
2023/07/17 22:17:48;;;;;;;2.97;2.70;;;22.00;70.30;;;;;;10319919;28;20807;-81
2023/07/17 22:22:52;;;;;;;4.63;2.50;;;21.90;70.80;;;;;;10324898;28;20219;-82
2023/07/17 22:27:54;;;;;;;6.30;2.30;;;21.90;71.80;;;;;;10326991;28;20226;-80
2023/07/17 22:32:56;;;;;;;2.97;1.90;;;21.90;71.10;;;;;;10323535;28;20262;-81
2023/07/17 22:38:00;;;;;;;3.50;2.40;;;21.80;71.10;;;;;;10319717;28;20334;-80
2023/07/17 22:43:02;;;;;;;3.27;1.93;;;21.80;70.80;;;;;;10311241;28;20254;-81
2023/07/17 22:48:04;;;;;;;3.17;2.10;;;21.80;71.10;;;;;;10323111;28;20212;-81
2023/07/17 22:53:08;;;;;;;2.30;1.93;;;21.70;71.50;;;;;;10325915;28;20242;-81
2023/07/17 22:58:10;;;;;;;4.63;2.37;;;21.80;70.80;;;;;;10324227;28;20253;-81
2023/07/17 23:03:12;;;;;;;3.70;2.37;;;21.70;70.60;;;;;;10325886;28;20278;-80
2023/07/17 23:08:15;;;;;;;2.03;1.90;;;21.60;71.30;;;;;;10333416;28;20203;-80
2023/07/17 23:13:17;;;;;;;2.23;2.13;;;21.60;71.70;;;;;;10322814;28;20772;-81
2023/07/17 23:18:19;;;;;;;2.90;2.23;;;21.50;72.50;;;;;;10321307;28;20259;-81
2023/07/17 23:23:23;;;;;;;2.70;1.70;;;21.50;72.20;;;;;;10323891;28;20255;-81
2023/07/17 23:28:25;;;;;;;3.57;1.80;;;21.40;72.50;;;;;;10320870;28;20287;-80
2023/07/17 23:33:27;;;;;;;4.73;2.10;;;21.40;72.90;;;;;;10320805;28;20708;-79
2023/07/17 23:38:31;;;;;;;1.90;1.80;;;21.40;74.00;;;;;;10335562;28;20297;-81
2023/07/17 23:43:34;;;;;;;2.07;1.90;;;21.40;72.20;;;;;;10321727;28;20235;-81
2023/07/17 23:48:36;;;;;;;2.17;1.60;;;21.30;73.80;;;;;;10321711;28;20208;-80
2023/07/17 23:53:40;;;;;;;1.97;1.77;;;21.20;72.30;;;;;;10320535;28;20286;-80
2023/07/17 23:58:42;;;;;;;2.30;1.97;;;21.20;72.60;;;;;;10320178;28;20254;-79
